createdAt,value
2022-10-25T00:01:51.085Z,98704.25
2022-10-25T00:04:53.728Z,98701.03
2022-10-25T00:07:56.297Z,98699.41
2022-10-25T00:11:00.270Z,98696.69
2022-10-25T00:14:05.732Z,98706.78
2022-10-25T00:17:08.483Z,98704.19
2022-10-25T00:20:12.661Z,98699.31
2022-10-25T00:23:15.913Z,98701.94
2022-10-25T00:26:20.339Z,98698.06
2022-10-25T00:32:26.456Z,98704.69
2022-10-25T00:35:29.148Z,98699.31
2022-10-25T00:38:31.944Z,98692.44
2022-10-25T00:41:36.006Z,98701.94
2022-10-25T00:44:54.005Z,98700.00
2022-10-25T00:47:59.303Z,98696.47
2022-10-25T00:51:02.572Z,98699.66
2022-10-25T00:54:05.750Z,98694.53
2022-10-25T00:57:13.796Z,98704.84
2022-10-25T01:00:16.830Z,98700.56
2022-10-25T01:03:22.222Z,98699.84
2022-10-25T01:06:29.493Z,98695.28
2022-10-25T01:09:33.567Z,98697.00
2022-10-25T01:12:37.520Z,98688.66
2022-10-25T01:15:48.018Z,98695.88
2022-10-25T01:18:57.105Z,98703.94
2022-10-25T01:22:03.392Z,98684.13
2022-10-25T01:25:29.006Z,98689.53
2022-10-25T01:28:43.388Z,98694.56
2022-10-25T01:31:50.017Z,98684.34
2022-10-25T01:34:58.198Z,98691.28
2022-10-25T01:38:17.115Z,98684.06
2022-10-25T01:41:26.132Z,98689.13
2022-10-25T01:47:45.318Z,98682.91
2022-10-25T01:50:49.020Z,98691.44
2022-10-25T01:53:52.885Z,98690.97
2022-10-25T01:57:04.850Z,98700.06
2022-10-25T02:00:10.777Z,98707.88
2022-10-25T02:03:20.006Z,98711.31
2022-10-25T02:06:28.761Z,98704.94
2022-10-25T02:09:34.833Z,98714.41
2022-10-25T02:12:44.381Z,98709.94
2022-10-25T02:15:55.394Z,98712.00
2022-10-25T02:19:00.977Z,98716.50
2022-10-25T02:22:04.692Z,98710.75
2022-10-25T02:25:08.947Z,98713.78
2022-10-25T02:28:13.327Z,98709.91
2022-10-25T02:31:18.993Z,98699.50
2022-10-25T02:34:23.179Z,98700.13
2022-10-25T02:37:25.893Z,98706.84
2022-10-25T02:40:28.809Z,98693.22
2022-10-25T02:43:31.385Z,98695.63
2022-10-25T02:46:33.991Z,98695.59
2022-10-25T02:49:38.342Z,98691.09
2022-10-25T02:52:40.954Z,98692.91
2022-10-25T02:55:44.519Z,98690.00
2022-10-25T02:58:47.547Z,98687.75
2022-10-25T03:01:50.222Z,98691.59
2022-10-25T03:04:54.301Z,98686.63
2022-10-25T03:07:56.928Z,98697.06
2022-10-25T03:10:59.629Z,98689.66
2022-10-25T03:14:02.317Z,98679.22
2022-10-25T03:17:06.372Z,98681.63
2022-10-25T03:20:11.657Z,98679.19
2022-10-25T03:23:14.605Z,98691.41
2022-10-25T03:26:17.704Z,98707.31
2022-10-25T03:29:20.805Z,98700.50
2022-10-25T03:32:23.464Z,98697.78
2022-10-25T03:35:27.736Z,98701.38
2022-10-25T03:38:30.409Z,98699.75
2022-10-25T03:41:33.001Z,98697.66
2022-10-25T03:44:36.097Z,98707.78
2022-10-25T03:47:38.900Z,98702.94
2022-10-25T03:50:43.228Z,98706.31
2022-10-25T03:53:45.884Z,98713.88
2022-10-25T03:56:48.559Z,98715.16
2022-10-25T03:59:51.224Z,98709.22
2022-10-25T04:02:59.421Z,98717.25
2022-10-25T04:06:06.186Z,98712.72
2022-10-25T04:09:08.903Z,98710.25
2022-10-25T04:12:11.508Z,98713.09
2022-10-25T04:15:14.773Z,98718.31
2022-10-25T04:18:17.454Z,98719.28
2022-10-25T04:21:21.547Z,98706.16
2022-10-25T04:24:24.322Z,98720.84
2022-10-25T04:27:27.330Z,98726.56
2022-10-25T04:30:31.953Z,98727.94
2022-10-25T04:33:36.425Z,98718.44
2022-10-25T04:36:40.694Z,98728.44
2022-10-25T04:39:43.378Z,98723.91
2022-10-25T04:42:46.318Z,98725.19
2022-10-25T04:45:49.430Z,98722.00
2022-10-25T04:48:52.136Z,98722.78
2022-10-25T04:51:56.564Z,98725.03
2022-10-25T04:54:59.423Z,98729.03
2022-10-25T04:58:02.136Z,98726.16
2022-10-25T05:01:07.333Z,98722.78
2022-10-25T05:04:10.154Z,98714.75
2022-10-25T05:07:14.335Z,98722.94
2022-10-25T05:10:17.142Z,98726.66
2022-10-25T05:13:19.843Z,98731.47
2022-10-25T05:16:24.906Z,98738.84
2022-10-25T05:19:27.572Z,98732.75
2022-10-25T05:22:32.248Z,98739.47
2022-10-25T05:25:34.819Z,98743.97
2022-10-25T05:28:38.838Z,98733.97
2022-10-25T05:31:42.567Z,98746.38
2022-10-25T05:34:45.315Z,98745.69
2022-10-25T05:37:49.450Z,98741.84
2022-10-25T05:40:55.856Z,98744.09
2022-10-25T05:43:58.856Z,98744.84
2022-10-25T05:47:01.757Z,98752.56
2022-10-25T05:50:04.481Z,98750.31
2022-10-25T05:53:08.642Z,98757.09
2022-10-25T05:56:12.349Z,98759.16
2022-10-25T05:59:18.699Z,98754.97
2022-10-25T06:02:21.506Z,98756.22
2022-10-25T06:05:24.244Z,98768.81
2022-10-25T06:08:28.353Z,98762.25
2022-10-25T06:11:31.633Z,98759.59
2022-10-25T06:14:34.398Z,98767.63
2022-10-25T06:17:37.150Z,98768.47
2022-10-25T06:23:44.371Z,98772.31
2022-10-25T06:26:47.139Z,98779.34
2022-10-25T06:29:49.954Z,98783.66
2022-10-25T06:32:52.564Z,98798.59
2022-10-25T06:35:56.420Z,98813.25
2022-10-25T06:39:05.809Z,98807.97
2022-10-25T06:42:09.517Z,98813.13
2022-10-25T06:45:12.304Z,98811.88
2022-10-25T06:48:14.983Z,98809.13
2022-10-25T06:51:17.749Z,98820.75
2022-10-25T06:54:21.693Z,98835.53
2022-10-25T06:57:24.482Z,98839.75
2022-10-25T07:00:27.293Z,98844.88
2022-10-25T07:03:34.952Z,98843.72
2022-10-25T07:06:38.003Z,98851.16
2022-10-25T07:09:42.103Z,98848.97
2022-10-25T07:12:44.972Z,98852.81
2022-10-25T07:15:47.862Z,98852.78
2022-10-25T07:18:50.624Z,98845.13
2022-10-25T07:21:53.241Z,98850.22
2022-10-25T07:24:57.218Z,98848.38
2022-10-25T07:27:59.797Z,98849.31
2022-10-25T07:31:02.894Z,98854.47
2022-10-25T07:34:06.582Z,98859.66
2022-10-25T07:37:09.482Z,98856.41
2022-10-25T07:40:14.166Z,98868.31
2022-10-25T07:43:16.804Z,98871.94
2022-10-25T07:46:19.589Z,98869.41
2022-10-25T07:49:22.328Z,98863.63
2022-10-25T07:52:25.275Z,98867.31
2022-10-25T07:55:29.261Z,98865.63
2022-10-25T07:58:32.045Z,98872.25
2022-10-25T08:01:34.720Z,98865.19
2022-10-25T08:04:37.433Z,98862.81
2022-10-25T08:07:40.060Z,98868.22
2022-10-25T08:10:44.974Z,98867.09
2022-10-25T08:13:49.931Z,98867.13
2022-10-25T08:16:52.560Z,98863.03
2022-10-25T08:19:56.315Z,98870.56
2022-10-25T08:22:59.166Z,98868.19
2022-10-25T08:26:03.601Z,98862.44
2022-10-25T08:29:06.303Z,98865.06
2022-10-25T08:32:08.917Z,98863.69
2022-10-25T08:35:11.504Z,98854.78
2022-10-25T08:38:14.081Z,98857.84
2022-10-25T08:41:20.362Z,98864.38
2022-10-25T08:44:33.182Z,98867.72
2022-10-25T08:47:38.204Z,98859.63
2022-10-25T08:50:43.850Z,98861.78
2022-10-25T08:53:48.916Z,98867.03
2022-10-25T08:57:14.578Z,98861.03
2022-10-25T09:00:21.041Z,98864.09
2022-10-25T09:03:25.578Z,98857.31
2022-10-25T09:06:35.913Z,98863.06
2022-10-25T09:09:43.633Z,98871.59
2022-10-25T09:12:53.577Z,98871.06
2022-10-25T09:16:02.273Z,98880.44
2022-10-25T09:19:09.686Z,98886.38
2022-10-25T09:22:15.467Z,98885.06
2022-10-25T09:25:22.885Z,98879.28
2022-10-25T09:28:35.689Z,98883.19
2022-10-25T09:31:40.757Z,98884.78
2022-10-25T09:34:43.561Z,98876.53
2022-10-25T09:37:50.018Z,98876.06
2022-10-25T09:41:02.852Z,98879.00
2022-10-25T09:44:12.298Z,98885.31
2022-10-25T09:47:22.299Z,98887.00
2022-10-25T09:50:27.482Z,98874.00
2022-10-25T09:53:32.575Z,98876.78
2022-10-25T09:56:35.195Z,98884.50
2022-10-25T09:59:39.313Z,98887.81
2022-10-25T10:02:42.509Z,98888.72
2022-10-25T10:05:48.722Z,98875.66
2022-10-25T10:08:52.949Z,98875.03
2022-10-25T10:11:55.651Z,98874.16
2022-10-25T10:15:02.615Z,98879.59
2022-10-25T10:18:25.268Z,98877.25
2022-10-25T10:21:28.057Z,98880.00
2022-10-25T10:24:32.059Z,98873.50
2022-10-25T10:27:35.247Z,98872.28
2022-10-25T10:30:39.906Z,98869.09
2022-10-25T10:33:42.598Z,98875.00
2022-10-25T10:36:45.862Z,98863.88
2022-10-25T10:39:52.781Z,98863.50
2022-10-25T10:42:58.327Z,98854.63
2022-10-25T10:46:09.827Z,98849.47
2022-10-25T10:49:12.711Z,98863.72
2022-10-25T10:52:29.151Z,98844.56
2022-10-25T10:55:33.379Z,98844.59
2022-10-25T10:58:38.876Z,98840.22
2022-10-25T11:01:43.221Z,98838.31
2022-10-25T11:04:49.939Z,98837.13
2022-10-25T11:07:57.379Z,98830.13
2022-10-25T11:11:14.335Z,98832.63
2022-10-25T11:14:19.982Z,98824.16
2022-10-25T11:17:27.145Z,98825.59
2022-10-25T11:20:33.177Z,98822.31
2022-10-25T11:23:39.630Z,98816.13
2022-10-25T11:26:51.773Z,98813.78
2022-10-25T11:30:03.768Z,98808.56
2022-10-25T11:33:28.538Z,98815.47
2022-10-25T11:36:51.591Z,98810.44
2022-10-25T11:40:01.885Z,98811.88
2022-10-25T11:43:17.319Z,98808.00
2022-10-25T11:46:25.201Z,98813.13
2022-10-25T11:49:36.897Z,98815.66
2022-10-25T11:52:59.566Z,98810.25
2022-10-25T11:56:08.399Z,98804.41
2022-10-25T11:59:17.249Z,98803.34
2022-10-25T12:02:42.528Z,98806.66
2022-10-25T12:05:50.873Z,98806.44
2022-10-25T12:09:03.411Z,98806.47
2022-10-25T12:12:08.019Z,98799.03
2022-10-25T12:15:15.441Z,98806.72
2022-10-25T12:18:25.360Z,98803.22
2022-10-25T12:21:36.757Z,98811.81
2022-10-25T12:24:42.683Z,98802.50
2022-10-25T12:27:49.521Z,98799.31
2022-10-25T12:30:57.414Z,98796.63
2022-10-25T12:34:06.610Z,98796.59
2022-10-25T12:37:16.218Z,98799.63
2022-10-25T12:40:21.717Z,98802.94
2022-10-25T12:43:28.415Z,98801.09
2022-10-25T12:46:52.666Z,98800.31
2022-10-25T12:50:11.978Z,98802.97
2022-10-25T12:53:50.298Z,98795.16
2022-10-25T12:57:00.920Z,98789.66
2022-10-25T13:00:11.464Z,98786.72
2022-10-25T13:03:35.335Z,98789.56
2022-10-25T13:06:39.167Z,98781.25
2022-10-25T13:09:43.535Z,98784.41
2022-10-25T13:13:00.076Z,98775.00
2022-10-25T13:16:04.573Z,98777.59
2022-10-25T13:19:42.781Z,98781.94
2022-10-25T13:22:47.866Z,98783.69
2022-10-25T13:26:08.212Z,98780.84
2022-10-25T13:29:45.524Z,98778.88
2022-10-25T13:33:28.978Z,98785.88
2022-10-25T13:36:47.960Z,98779.22
2022-10-25T13:39:54.189Z,98775.34
2022-10-25T13:43:06.333Z,98773.19
2022-10-25T13:46:11.266Z,98778.97
2022-10-25T13:49:31.684Z,98772.72
2022-10-25T13:52:35.216Z,98764.66
2022-10-25T13:55:39.647Z,98763.63
2022-10-25T13:58:46.946Z,98776.06
2022-10-25T14:01:54.867Z,98772.19
2022-10-25T14:04:57.616Z,98767.88
2022-10-25T14:08:12.991Z,98763.72
2022-10-25T14:11:19.329Z,98756.44
2022-10-25T14:14:28.982Z,98754.41
2022-10-25T14:17:35.356Z,98753.75
2022-10-25T14:20:38.760Z,98748.53
2022-10-25T14:23:41.872Z,98756.56
2022-10-25T14:26:56.115Z,98738.88
2022-10-25T14:30:25.538Z,98729.84
2022-10-25T14:33:30.519Z,98738.94
2022-10-25T14:36:34.154Z,98731.00
2022-10-25T14:39:36.996Z,98737.75
2022-10-25T14:42:39.675Z,98734.53
2022-10-25T14:45:56.238Z,98735.84
2022-10-25T14:49:00.087Z,98747.31
2022-10-25T14:52:04.381Z,98735.41
2022-10-25T14:55:08.111Z,98732.63
2022-10-25T14:58:12.634Z,98727.41
2022-10-25T15:01:20.398Z,98730.75
2022-10-25T15:04:28.026Z,98718.53
2022-10-25T15:07:32.380Z,98731.81
2022-10-25T15:10:41.833Z,98724.91
2022-10-25T15:13:45.662Z,98731.38
2022-10-25T15:16:51.914Z,98726.84
2022-10-25T15:20:06.895Z,98725.75
2022-10-25T15:23:16.711Z,98721.88
2022-10-25T15:26:24.585Z,98715.63
2022-10-25T15:29:31.996Z,98710.78
2022-10-25T15:32:37.083Z,98710.63
2022-10-25T15:35:48.253Z,98712.81
2022-10-25T15:39:07.897Z,98717.91
2022-10-25T15:42:15.325Z,98709.44
2022-10-25T15:45:18.587Z,98708.66
2022-10-25T15:48:24.225Z,98705.75
2022-10-25T15:51:30.178Z,98705.75
2022-10-25T15:54:34.682Z,98709.28
2022-10-25T15:57:37.297Z,98715.72
2022-10-25T16:00:40.159Z,98706.00
2022-10-25T16:03:44.323Z,98708.22
2022-10-25T16:06:47.500Z,98718.66
2022-10-25T16:09:50.187Z,98707.44
2022-10-25T16:12:58.568Z,98712.34
2022-10-25T16:16:11.852Z,98712.13
2022-10-25T16:19:31.486Z,98710.84
2022-10-25T16:22:34.341Z,98718.25
2022-10-25T16:25:36.962Z,98718.22
2022-10-25T16:28:40.932Z,98704.56
2022-10-25T16:31:44.543Z,98706.56
2022-10-25T16:34:48.627Z,98701.09
2022-10-25T16:37:51.470Z,98701.59
2022-10-25T16:40:54.202Z,98701.72
2022-10-25T16:43:57.379Z,98706.56
2022-10-25T16:47:00.212Z,98702.19
2022-10-25T16:50:04.354Z,98702.91
2022-10-25T16:53:09.150Z,98703.38
2022-10-25T16:56:12.102Z,98704.28
2022-10-25T16:59:14.857Z,98699.81
2022-10-25T17:02:18.998Z,98698.22
2022-10-25T17:05:24.819Z,98705.66
2022-10-25T17:08:27.506Z,98702.34
2022-10-25T17:11:30.233Z,98698.56
2022-10-25T17:14:32.987Z,98703.69
2022-10-25T17:17:36.004Z,98696.34
2022-10-25T17:20:40.116Z,98693.94
2022-10-25T17:23:43.140Z,98691.44
2022-10-25T17:26:45.724Z,98697.78
2022-10-25T17:29:48.754Z,98695.75
2022-10-25T17:32:51.619Z,98686.94
2022-10-25T17:35:56.021Z,98688.16
2022-10-25T17:38:58.700Z,98690.00
2022-10-25T17:42:01.610Z,98688.72
2022-10-25T17:45:04.348Z,98686.56
2022-10-25T17:48:07.365Z,98686.75
2022-10-25T17:51:12.760Z,98687.22
2022-10-25T17:54:16.678Z,98685.81
2022-10-25T17:57:19.397Z,98690.47
2022-10-25T18:00:22.165Z,98693.78
2022-10-25T18:03:24.905Z,98692.66
2022-10-25T18:06:29.158Z,98696.28
2022-10-25T18:09:31.969Z,98694.22
2022-10-25T18:12:34.686Z,98694.16
2022-10-25T18:15:38.627Z,98691.31
2022-10-25T18:18:41.571Z,98693.25
2022-10-25T18:21:45.660Z,98687.44
2022-10-25T18:24:48.569Z,98692.31
2022-10-25T18:27:51.536Z,98698.00
2022-10-25T18:30:59.748Z,98695.94
2022-10-25T18:34:04.404Z,98701.09
2022-10-25T18:37:08.528Z,98695.41
2022-10-25T18:40:11.994Z,98708.84
2022-10-25T18:43:14.872Z,98704.09
2022-10-25T18:46:17.875Z,98702.22
2022-10-25T18:49:20.689Z,98702.78
2022-10-25T18:52:24.821Z,98699.34
2022-10-25T18:55:28.331Z,98688.66
2022-10-25T18:58:31.308Z,98683.72
2022-10-25T19:01:34.075Z,98680.94
2022-10-25T19:04:37.705Z,98679.03
2022-10-25T19:07:41.568Z,98672.31
2022-10-25T19:10:44.210Z,98677.69
2022-10-25T19:13:50.366Z,98674.59
2022-10-25T19:16:54.086Z,98667.84
2022-10-25T19:19:56.845Z,98677.25
2022-10-25T19:23:00.821Z,98672.59
2022-10-25T19:26:04.307Z,98663.56
2022-10-25T19:29:06.984Z,98667.06
2022-10-25T19:32:09.633Z,98669.13
2022-10-25T19:35:12.389Z,98670.91
2022-10-25T19:38:16.373Z,98677.00
2022-10-25T19:41:20.829Z,98666.72
2022-10-25T19:44:24.255Z,98677.41
2022-10-25T19:47:26.976Z,98677.00
2022-10-25T19:50:30.745Z,98672.97
2022-10-25T19:53:34.830Z,98673.75
2022-10-25T19:56:39.123Z,98680.81
2022-10-25T19:59:43.083Z,98662.56
2022-10-25T20:02:45.880Z,98662.75
2022-10-25T20:05:48.712Z,98654.47
2022-10-25T20:08:53.052Z,98657.31
2022-10-25T20:11:55.682Z,98650.03
2022-10-25T20:14:58.884Z,98648.91
2022-10-25T20:18:02.246Z,98646.63
2022-10-25T20:21:07.371Z,98660.28
2022-10-25T20:24:11.558Z,98647.06
2022-10-25T20:27:14.215Z,98656.81
2022-10-25T20:30:17.408Z,98644.91
2022-10-25T20:33:20.467Z,98646.31
2022-10-25T20:36:23.563Z,98641.13
2022-10-25T20:39:27.580Z,98645.94
2022-10-25T20:42:30.267Z,98643.50
2022-10-25T20:45:33.138Z,98644.38
2022-10-25T20:48:36.263Z,98644.47
2022-10-25T20:51:39.213Z,98633.69
2022-10-25T20:54:43.316Z,98634.22
2022-10-25T20:57:46.433Z,98625.47
2022-10-25T21:00:50.032Z,98634.75
2022-10-25T21:03:54.025Z,98630.31
2022-10-25T21:06:56.828Z,98636.09
2022-10-25T21:10:00.941Z,98634.03
2022-10-25T21:13:03.779Z,98627.00
2022-10-25T21:16:07.531Z,98627.53
2022-10-25T21:19:10.257Z,98627.81
2022-10-25T21:22:12.972Z,98626.34
2022-10-25T21:25:17.271Z,98626.47
2022-10-25T21:28:19.906Z,98636.84
2022-10-25T21:31:22.612Z,98631.50
2022-10-25T21:34:25.249Z,98626.69
2022-10-25T21:37:27.998Z,98625.53
2022-10-25T21:40:31.992Z,98617.66
2022-10-25T21:43:34.765Z,98621.44
2022-10-25T21:46:37.511Z,98623.47
2022-10-25T21:49:40.399Z,98616.06
2022-10-25T21:52:43.041Z,98613.47
2022-10-25T21:55:47.021Z,98597.91
2022-10-25T21:58:50.937Z,98593.16
2022-10-25T22:01:53.606Z,98587.00
2022-10-25T22:04:56.398Z,98585.97
2022-10-25T22:07:59.172Z,98573.19
2022-10-25T22:11:05.018Z,98576.75
2022-10-25T22:14:10.688Z,98592.28
2022-10-25T22:17:13.812Z,98598.94
2022-10-25T22:20:16.745Z,98611.44
2022-10-25T22:23:19.457Z,98610.41
2022-10-25T22:26:23.474Z,98610.41
2022-10-25T22:29:26.378Z,98605.84
2022-10-25T22:32:29.052Z,98605.63
2022-10-25T22:35:31.830Z,98603.09
2022-10-25T22:38:34.932Z,98604.59
2022-10-25T22:41:39.062Z,98595.88
2022-10-25T22:44:41.835Z,98582.63
2022-10-25T22:47:44.852Z,98583.44
2022-10-25T22:50:51.595Z,98588.56
2022-10-25T22:53:54.599Z,98586.84
2022-10-25T22:56:58.646Z,98588.69
2022-10-25T23:00:01.230Z,98591.75
2022-10-25T23:03:04.191Z,98577.94
2022-10-25T23:06:08.770Z,98573.00
2022-10-25T23:09:11.854Z,98565.59
2022-10-25T23:12:15.989Z,98573.91
2022-10-25T23:15:18.725Z,98568.19
2022-10-25T23:18:21.391Z,98571.28
2022-10-25T23:21:24.964Z,98579.28
2022-10-25T23:24:27.435Z,98571.88
2022-10-25T23:27:31.965Z,98572.44
2022-10-25T23:30:36.012Z,98584.78
2022-10-25T23:33:39.305Z,98582.59
2022-10-25T23:36:42.035Z,98574.59
2022-10-25T23:39:44.675Z,98578.25
2022-10-25T23:42:48.651Z,98575.16
2022-10-25T23:45:51.326Z,98570.34
2022-10-25T23:48:54.020Z,98563.97
2022-10-25T23:51:56.650Z,98565.56
2022-10-25T23:54:59.302Z,98569.09
2022-10-25T23:58:03.402Z,98564.75
